sensor_id;sensor_type;location;lat;lon;timestamp;temperature;humidity
46440;DHT22;32138;50.966;6.968;2023-11-19T00:00:41;11.20;99.90
46440;DHT22;32138;50.966;6.968;2023-11-19T00:02:12;11.20;99.90
46440;DHT22;32138;50.966;6.968;2023-11-19T00:03:43;11.10;99.90
46440;DHT22;32138;50.966;6.968;2023-11-19T00:05:14;11.20;99.90
46440;DHT22;32138;50.966;6.968;2023-11-19T00:06:45;11.20;99.90
46440;DHT22;32138;50.966;6.968;2023-11-19T00:08:15;11.20;99.90
46440;DHT22;32138;50.966;6.968;2023-11-19T00:09:46;11.10;99.90
46440;DHT22;32138;50.966;6.968;2023-11-19T00:11:17;11.20;99.90
46440;DHT22;32138;50.966;6.968;2023-11-19T00:12:49;11.30;99.90
46440;DHT22;32138;50.966;6.968;2023-11-19T00:14:20;11.30;99.90
46440;DHT22;32138;50.966;6.968;2023-11-19T00:15:50;11.30;99.90
46440;DHT22;32138;50.966;6.968;2023-11-19T00:17:21;11.40;99.90
46440;DHT22;32138;50.966;6.968;2023-11-19T00:18:52;11.40;99.90
46440;DHT22;32138;50.966;6.968;2023-11-19T00:20:23;11.20;99.90
46440;DHT22;32138;50.966;6.968;2023-11-19T00:21:54;11.20;99.90
46440;DHT22;32138;50.966;6.968;2023-11-19T00:23:24;11.30;99.90
46440;DHT22;32138;50.966;6.968;2023-11-19T00:24:55;11.30;99.90
46440;DHT22;32138;50.966;6.968;2023-11-19T00:26:27;11.20;99.90
46440;DHT22;32138;50.966;6.968;2023-11-19T00:27:58;11.20;99.90
46440;DHT22;32138;50.966;6.968;2023-11-19T00:29:29;11.20;99.90
46440;DHT22;32138;50.966;6.968;2023-11-19T00:31:00;11.20;99.90
46440;DHT22;32138;50.966;6.968;2023-11-19T00:32:32;11.30;99.90
46440;DHT22;32138;50.966;6.968;2023-11-19T00:34:03;11.30;99.90
46440;DHT22;32138;50.966;6.968;2023-11-19T00:35:34;11.30;99.90
46440;DHT22;32138;50.966;6.968;2023-11-19T00:37:04;11.30;99.90
46440;DHT22;32138;50.966;6.968;2023-11-19T00:38:35;11.40;99.90
46440;DHT22;32138;50.966;6.968;2023-11-19T00:40:06;11.30;99.90
46440;DHT22;32138;50.966;6.968;2023-11-19T00:41:38;11.30;99.90
46440;DHT22;32138;50.966;6.968;2023-11-19T00:43:10;11.40;99.90
46440;DHT22;32138;50.966;6.968;2023-11-19T00:44:41;11.40;99.90
46440;DHT22;32138;50.966;6.968;2023-11-19T00:46:12;11.50;99.90
46440;DHT22;32138;50.966;6.968;2023-11-19T00:47:43;11.50;99.90
46440;DHT22;32138;50.966;6.968;2023-11-19T00:49:14;11.60;99.90
46440;DHT22;32138;50.966;6.968;2023-11-19T00:50:45;11.70;99.90
46440;DHT22;32138;50.966;6.968;2023-11-19T00:52:17;11.70;99.90
46440;DHT22;32138;50.966;6.968;2023-11-19T00:53:48;11.70;99.90
46440;DHT22;32138;50.966;6.968;2023-11-19T00:55:19;11.70;99.90
46440;DHT22;32138;50.966;6.968;2023-11-19T00:56:50;11.60;99.90
46440;DHT22;32138;50.966;6.968;2023-11-19T00:58:22;11.70;99.90
46440;DHT22;32138;50.966;6.968;2023-11-19T00:59:53;11.70;99.90
46440;DHT22;32138;50.966;6.968;2023-11-19T01:01:24;11.70;99.90
46440;DHT22;32138;50.966;6.968;2023-11-19T01:02:55;11.70;99.90
46440;DHT22;32138;50.966;6.968;2023-11-19T01:04:35;11.70;99.90
46440;DHT22;32138;50.966;6.968;2023-11-19T01:06:06;11.60;99.90
46440;DHT22;32138;50.966;6.968;2023-11-19T01:07:38;11.70;99.90
46440;DHT22;32138;50.966;6.968;2023-11-19T01:09:09;11.70;99.90
46440;DHT22;32138;50.966;6.968;2023-11-19T01:10:40;11.70;99.90
46440;DHT22;32138;50.966;6.968;2023-11-19T01:12:11;11.70;99.90
46440;DHT22;32138;50.966;6.968;2023-11-19T01:13:41;11.80;99.90
46440;DHT22;32138;50.966;6.968;2023-11-19T01:15:12;11.80;99.90
46440;DHT22;32138;50.966;6.968;2023-11-19T01:16:48;11.80;99.90
46440;DHT22;32138;50.966;6.968;2023-11-19T01:18:19;11.70;99.90
46440;DHT22;32138;50.966;6.968;2023-11-19T01:19:50;11.70;99.90
46440;DHT22;32138;50.966;6.968;2023-11-19T01:21:21;11.80;99.90
46440;DHT22;32138;50.966;6.968;2023-11-19T01:22:52;11.80;99.90
46440;DHT22;32138;50.966;6.968;2023-11-19T01:24:23;11.80;99.90
46440;DHT22;32138;50.966;6.968;2023-11-19T01:25:53;11.70;99.90
46440;DHT22;32138;50.966;6.968;2023-11-19T01:27:24;11.80;99.90
46440;DHT22;32138;50.966;6.968;2023-11-19T01:28:55;11.80;99.90
46440;DHT22;32138;50.966;6.968;2023-11-19T01:30:26;11.80;99.90
46440;DHT22;32138;50.966;6.968;2023-11-19T01:31:57;11.80;99.90
46440;DHT22;32138;50.966;6.968;2023-11-19T01:33:28;11.80;99.90
46440;DHT22;32138;50.966;6.968;2023-11-19T01:34:58;11.80;99.90
46440;DHT22;32138;50.966;6.968;2023-11-19T01:36:29;11.80;99.90
46440;DHT22;32138;50.966;6.968;2023-11-19T01:38:00;11.80;99.90
46440;DHT22;32138;50.966;6.968;2023-11-19T01:39:31;11.80;99.90
46440;DHT22;32138;50.966;6.968;2023-11-19T01:41:01;11.80;99.90
46440;DHT22;32138;50.966;6.968;2023-11-19T01:42:40;11.90;99.90
46440;DHT22;32138;50.966;6.968;2023-11-19T01:44:11;12.00;99.90
46440;DHT22;32138;50.966;6.968;2023-11-19T01:45:44;12.00;99.90
46440;DHT22;32138;50.966;6.968;2023-11-19T01:47:15;12.10;99.90
46440;DHT22;32138;50.966;6.968;2023-11-19T01:48:46;12.10;99.90
46440;DHT22;32138;50.966;6.968;2023-11-19T01:50:17;12.20;99.90
46440;DHT22;32138;50.966;6.968;2023-11-19T01:51:48;12.20;99.90
46440;DHT22;32138;50.966;6.968;2023-11-19T01:53:20;12.30;99.90
46440;DHT22;32138;50.966;6.968;2023-11-19T01:54:53;12.30;99.90
46440;DHT22;32138;50.966;6.968;2023-11-19T01:56:26;12.30;99.90
46440;DHT22;32138;50.966;6.968;2023-11-19T01:57:59;12.40;99.90
46440;DHT22;32138;50.966;6.968;2023-11-19T01:59:31;12.50;99.90
46440;DHT22;32138;50.966;6.968;2023-11-19T02:01:03;12.50;99.90
46440;DHT22;32138;50.966;6.968;2023-11-19T02:02:34;12.60;99.90
46440;DHT22;32138;50.966;6.968;2023-11-19T02:04:08;12.60;99.90
46440;DHT22;32138;50.966;6.968;2023-11-19T02:05:40;12.60;99.90
46440;DHT22;32138;50.966;6.968;2023-11-19T02:07:11;12.70;99.90
46440;DHT22;32138;50.966;6.968;2023-11-19T02:08:42;12.70;99.90
46440;DHT22;32138;50.966;6.968;2023-11-19T02:10:13;12.80;99.90
46440;DHT22;32138;50.966;6.968;2023-11-19T02:11:47;12.80;99.90
46440;DHT22;32138;50.966;6.968;2023-11-19T02:13:22;12.80;99.90
46440;DHT22;32138;50.966;6.968;2023-11-19T02:14:52;12.90;99.90
46440;DHT22;32138;50.966;6.968;2023-11-19T02:16:23;12.90;99.90
46440;DHT22;32138;50.966;6.968;2023-11-19T02:17:54;12.90;99.90
46440;DHT22;32138;50.966;6.968;2023-11-19T02:19:25;12.90;99.90
46440;DHT22;32138;50.966;6.968;2023-11-19T02:20:56;12.90;99.90
46440;DHT22;32138;50.966;6.968;2023-11-19T02:22:28;13.00;99.90
46440;DHT22;32138;50.966;6.968;2023-11-19T02:23:59;13.00;99.90
46440;DHT22;32138;50.966;6.968;2023-11-19T02:25:31;13.00;99.90
46440;DHT22;32138;50.966;6.968;2023-11-19T02:27:10;12.90;99.90
46440;DHT22;32138;50.966;6.968;2023-11-19T02:28:46;12.90;99.90
46440;DHT22;32138;50.966;6.968;2023-11-19T02:30:17;13.00;99.90
46440;DHT22;32138;50.966;6.968;2023-11-19T02:31:48;13.00;99.90
46440;DHT22;32138;50.966;6.968;2023-11-19T02:33:19;13.00;99.90
46440;DHT22;32138;50.966;6.968;2023-11-19T02:34:49;13.00;99.90
46440;DHT22;32138;50.966;6.968;2023-11-19T02:36:20;13.00;99.90
46440;DHT22;32138;50.966;6.968;2023-11-19T02:37:52;13.10;99.90
46440;DHT22;32138;50.966;6.968;2023-11-19T02:39:23;13.10;99.90
46440;DHT22;32138;50.966;6.968;2023-11-19T02:40:53;13.10;99.90
46440;DHT22;32138;50.966;6.968;2023-11-19T02:42:24;13.10;99.90
46440;DHT22;32138;50.966;6.968;2023-11-19T02:43:55;13.10;99.90
46440;DHT22;32138;50.966;6.968;2023-11-19T02:45:26;13.00;99.90
46440;DHT22;32138;50.966;6.968;2023-11-19T02:46:57;13.10;99.90
46440;DHT22;32138;50.966;6.968;2023-11-19T02:48:29;13.10;99.90
46440;DHT22;32138;50.966;6.968;2023-11-19T02:50:01;13.10;99.90
46440;DHT22;32138;50.966;6.968;2023-11-19T02:51:33;13.10;99.90
46440;DHT22;32138;50.966;6.968;2023-11-19T02:53:05;13.10;99.90
46440;DHT22;32138;50.966;6.968;2023-11-19T02:54:37;13.10;99.90
46440;DHT22;32138;50.966;6.968;2023-11-19T02:56:08;13.10;99.90
46440;DHT22;32138;50.966;6.968;2023-11-19T02:57:56;13.10;99.90
46440;DHT22;32138;50.966;6.968;2023-11-19T02:59:29;13.10;99.90
46440;DHT22;32138;50.966;6.968;2023-11-19T03:01:09;13.10;99.90
46440;DHT22;32138;50.966;6.968;2023-11-19T03:02:53;13.10;99.90
46440;DHT22;32138;50.966;6.968;2023-11-19T03:04:29;13.00;99.90
46440;DHT22;32138;50.966;6.968;2023-11-19T03:06:01;13.00;99.90
46440;DHT22;32138;50.966;6.968;2023-11-19T03:07:35;13.00;99.90
46440;DHT22;32138;50.966;6.968;2023-11-19T03:09:07;13.00;99.90
46440;DHT22;32138;50.966;6.968;2023-11-19T03:10:40;13.00;99.90
46440;DHT22;32138;50.966;6.968;2023-11-19T03:12:11;13.00;99.90
46440;DHT22;32138;50.966;6.968;2023-11-19T03:13:42;13.00;99.90
46440;DHT22;32138;50.966;6.968;2023-11-19T03:15:13;13.00;99.90
46440;DHT22;32138;50.966;6.968;2023-11-19T03:16:46;12.90;99.90
46440;DHT22;32138;50.966;6.968;2023-11-19T03:18:17;13.00;99.90
46440;DHT22;32138;50.966;6.968;2023-11-19T03:19:49;12.90;99.90
46440;DHT22;32138;50.966;6.968;2023-11-19T03:21:26;12.90;99.90
46440;DHT22;32138;50.966;6.968;2023-11-19T03:22:58;12.90;99.90
46440;DHT22;32138;50.966;6.968;2023-11-19T03:24:30;13.00;99.90
46440;DHT22;32138;50.966;6.968;2023-11-19T03:26:01;12.90;99.90
46440;DHT22;32138;50.966;6.968;2023-11-19T03:27:38;12.90;99.90
46440;DHT22;32138;50.966;6.968;2023-11-19T03:29:09;12.90;99.90
46440;DHT22;32138;50.966;6.968;2023-11-19T03:30:40;12.90;99.90
46440;DHT22;32138;50.966;6.968;2023-11-19T03:32:11;12.90;99.90
46440;DHT22;32138;50.966;6.968;2023-11-19T03:33:42;12.90;99.90
46440;DHT22;32138;50.966;6.968;2023-11-19T03:35:13;12.90;99.90
46440;DHT22;32138;50.966;6.968;2023-11-19T03:36:44;12.90;99.90
46440;DHT22;32138;50.966;6.968;2023-11-19T03:38:16;12.90;99.90
46440;DHT22;32138;50.966;6.968;2023-11-19T03:39:46;13.00;99.90
46440;DHT22;32138;50.966;6.968;2023-11-19T03:41:17;13.00;99.90
46440;DHT22;32138;50.966;6.968;2023-11-19T03:42:48;13.00;99.90
46440;DHT22;32138;50.966;6.968;2023-11-19T03:44:18;13.00;99.90
46440;DHT22;32138;50.966;6.968;2023-11-19T03:45:49;13.10;99.90
46440;DHT22;32138;50.966;6.968;2023-11-19T03:47:20;13.00;99.90
46440;DHT22;32138;50.966;6.968;2023-11-19T03:48:51;13.10;99.90
46440;DHT22;32138;50.966;6.968;2023-11-19T03:50:21;13.00;99.90
46440;DHT22;32138;50.966;6.968;2023-11-19T03:51:52;13.10;99.90
46440;DHT22;32138;50.966;6.968;2023-11-19T03:53:23;13.00;99.90
46440;DHT22;32138;50.966;6.968;2023-11-19T03:54:55;13.10;99.90
46440;DHT22;32138;50.966;6.968;2023-11-19T03:56:27;13.10;99.90
46440;DHT22;32138;50.966;6.968;2023-11-19T03:57:58;13.10;99.90
46440;DHT22;32138;50.966;6.968;2023-11-19T03:59:29;13.10;99.90
46440;DHT22;32138;50.966;6.968;2023-11-19T04:00:59;13.20;99.90
46440;DHT22;32138;50.966;6.968;2023-11-19T04:02:31;13.20;99.90
46440;DHT22;32138;50.966;6.968;2023-11-19T04:04:01;13.20;99.90
46440;DHT22;32138;50.966;6.968;2023-11-19T04:05:32;13.10;99.90
46440;DHT22;32138;50.966;6.968;2023-11-19T04:07:03;13.10;99.90
46440;DHT22;32138;50.966;6.968;2023-11-19T04:08:34;13.20;99.90
46440;DHT22;32138;50.966;6.968;2023-11-19T04:10:06;13.10;99.90
46440;DHT22;32138;50.966;6.968;2023-11-19T04:11:37;13.20;99.90
46440;DHT22;32138;50.966;6.968;2023-11-19T04:13:08;13.20;99.90
46440;DHT22;32138;50.966;6.968;2023-11-19T04:14:39;13.20;99.90
46440;DHT22;32138;50.966;6.968;2023-11-19T04:16:10;13.20;99.90
46440;DHT22;32138;50.966;6.968;2023-11-19T04:17:41;13.20;99.90
46440;DHT22;32138;50.966;6.968;2023-11-19T04:19:12;13.20;99.90
46440;DHT22;32138;50.966;6.968;2023-11-19T04:20:43;13.20;99.90
46440;DHT22;32138;50.966;6.968;2023-11-19T04:22:14;13.20;99.90
46440;DHT22;32138;50.966;6.968;2023-11-19T04:23:44;13.30;99.90
46440;DHT22;32138;50.966;6.968;2023-11-19T04:25:15;13.20;99.90
46440;DHT22;32138;50.966;6.968;2023-11-19T04:26:46;13.30;99.90
46440;DHT22;32138;50.966;6.968;2023-11-19T04:28:17;13.30;99.90
46440;DHT22;32138;50.966;6.968;2023-11-19T04:29:48;13.30;99.90
46440;DHT22;32138;50.966;6.968;2023-11-19T04:31:21;13.30;99.90
46440;DHT22;32138;50.966;6.968;2023-11-19T04:32:51;13.20;99.90
46440;DHT22;32138;50.966;6.968;2023-11-19T04:34:22;13.20;99.90
46440;DHT22;32138;50.966;6.968;2023-11-19T04:35:53;13.20;99.90
46440;DHT22;32138;50.966;6.968;2023-11-19T04:37:24;13.20;99.90
46440;DHT22;32138;50.966;6.968;2023-11-19T04:38:55;13.20;99.90
46440;DHT22;32138;50.966;6.968;2023-11-19T04:40:26;13.20;99.90
46440;DHT22;32138;50.966;6.968;2023-11-19T04:41:56;13.20;99.90
46440;DHT22;32138;50.966;6.968;2023-11-19T04:43:27;13.10;99.90
46440;DHT22;32138;50.966;6.968;2023-11-19T04:44:58;13.20;99.90
46440;DHT22;32138;50.966;6.968;2023-11-19T04:46:28;13.20;99.90
46440;DHT22;32138;50.966;6.968;2023-11-19T04:47:59;13.20;99.90
46440;DHT22;32138;50.966;6.968;2023-11-19T04:49:30;13.20;99.90
46440;DHT22;32138;50.966;6.968;2023-11-19T04:51:01;13.20;99.90
46440;DHT22;32138;50.966;6.968;2023-11-19T04:52:31;13.20;99.90
46440;DHT22;32138;50.966;6.968;2023-11-19T04:54:02;13.20;99.90
46440;DHT22;32138;50.966;6.968;2023-11-19T04:55:34;13.20;99.90
46440;DHT22;32138;50.966;6.968;2023-11-19T04:57:05;13.30;99.90
46440;DHT22;32138;50.966;6.968;2023-11-19T04:58:35;13.30;99.90
46440;DHT22;32138;50.966;6.968;2023-11-19T05:00:07;13.30;99.90
46440;DHT22;32138;50.966;6.968;2023-11-19T05:01:38;13.30;99.90
46440;DHT22;32138;50.966;6.968;2023-11-19T05:03:09;13.30;99.90
46440;DHT22;32138;50.966;6.968;2023-11-19T05:04:43;13.20;99.90
46440;DHT22;32138;50.966;6.968;2023-11-19T05:06:14;13.20;99.90
46440;DHT22;32138;50.966;6.968;2023-11-19T05:07:45;13.20;99.90
46440;DHT22;32138;50.966;6.968;2023-11-19T05:09:16;13.20;99.90
46440;DHT22;32138;50.966;6.968;2023-11-19T05:10:47;13.20;99.90
46440;DHT22;32138;50.966;6.968;2023-11-19T05:12:18;13.20;99.90
46440;DHT22;32138;50.966;6.968;2023-11-19T05:13:48;13.30;99.90
46440;DHT22;32138;50.966;6.968;2023-11-19T05:15:20;13.20;99.90
46440;DHT22;32138;50.966;6.968;2023-11-19T05:16:51;13.20;99.90
46440;DHT22;32138;50.966;6.968;2023-11-19T05:18:22;13.20;99.90
46440;DHT22;32138;50.966;6.968;2023-11-19T05:19:52;13.20;99.90
46440;DHT22;32138;50.966;6.968;2023-11-19T05:21:24;13.10;99.90
46440;DHT22;32138;50.966;6.968;2023-11-19T05:22:54;13.10;99.90
46440;DHT22;32138;50.966;6.968;2023-11-19T05:24:25;13.10;99.90
46440;DHT22;32138;50.966;6.968;2023-11-19T05:25:56;13.10;99.90
46440;DHT22;32138;50.966;6.968;2023-11-19T05:27:28;13.10;99.90
46440;DHT22;32138;50.966;6.968;2023-11-19T05:28:59;13.00;99.90
46440;DHT22;32138;50.966;6.968;2023-11-19T05:30:30;13.00;99.90
46440;DHT22;32138;50.966;6.968;2023-11-19T05:32:01;13.00;99.90
46440;DHT22;32138;50.966;6.968;2023-11-19T05:33:31;13.00;99.90
46440;DHT22;32138;50.966;6.968;2023-11-19T05:35:02;13.00;99.90
46440;DHT22;32138;50.966;6.968;2023-11-19T05:36:33;13.00;99.90
46440;DHT22;32138;50.966;6.968;2023-11-19T05:38:04;12.90;99.90
46440;DHT22;32138;50.966;6.968;2023-11-19T05:39:36;13.00;99.90
46440;DHT22;32138;50.966;6.968;2023-11-19T05:41:07;13.00;99.90
46440;DHT22;32138;50.966;6.968;2023-11-19T05:42:37;13.00;99.90
46440;DHT22;32138;50.966;6.968;2023-11-19T05:44:08;13.00;99.90
46440;DHT22;32138;50.966;6.968;2023-11-19T05:45:39;13.00;99.90
46440;DHT22;32138;50.966;6.968;2023-11-19T05:47:10;12.90;99.90
46440;DHT22;32138;50.966;6.968;2023-11-19T05:48:41;12.90;99.90
46440;DHT22;32138;50.966;6.968;2023-11-19T05:50:11;13.00;99.90
46440;DHT22;32138;50.966;6.968;2023-11-19T05:51:42;13.00;99.90
46440;DHT22;32138;50.966;6.968;2023-11-19T05:53:13;13.00;99.90
46440;DHT22;32138;50.966;6.968;2023-11-19T05:54:45;13.00;99.90
46440;DHT22;32138;50.966;6.968;2023-11-19T05:56:17;12.90;99.90
46440;DHT22;32138;50.966;6.968;2023-11-19T05:57:51;12.80;99.90
46440;DHT22;32138;50.966;6.968;2023-11-19T05:59:22;12.80;99.90
46440;DHT22;32138;50.966;6.968;2023-11-19T06:00:55;12.80;99.90
46440;DHT22;32138;50.966;6.968;2023-11-19T06:02:26;12.80;99.90
46440;DHT22;32138;50.966;6.968;2023-11-19T06:03:57;12.80;99.90
46440;DHT22;32138;50.966;6.968;2023-11-19T06:05:28;12.80;99.90
46440;DHT22;32138;50.966;6.968;2023-11-19T06:06:59;12.80;99.90
46440;DHT22;32138;50.966;6.968;2023-11-19T06:08:29;12.80;99.90
46440;DHT22;32138;50.966;6.968;2023-11-19T06:10:01;12.80;99.90
46440;DHT22;32138;50.966;6.968;2023-11-19T06:11:33;12.80;99.90
46440;DHT22;32138;50.966;6.968;2023-11-19T06:13:06;12.80;99.90
46440;DHT22;32138;50.966;6.968;2023-11-19T06:14:37;12.80;99.90
46440;DHT22;32138;50.966;6.968;2023-11-19T06:16:08;12.80;99.90
46440;DHT22;32138;50.966;6.968;2023-11-19T06:17:38;12.80;99.90
46440;DHT22;32138;50.966;6.968;2023-11-19T06:19:09;12.80;99.90
46440;DHT22;32138;50.966;6.968;2023-11-19T06:20:41;12.80;99.90
46440;DHT22;32138;50.966;6.968;2023-11-19T06:22:12;12.80;99.90
46440;DHT22;32138;50.966;6.968;2023-11-19T06:23:43;12.70;99.90
46440;DHT22;32138;50.966;6.968;2023-11-19T06:25:14;12.70;99.90
46440;DHT22;32138;50.966;6.968;2023-11-19T06:26:45;12.70;99.90
46440;DHT22;32138;50.966;6.968;2023-11-19T06:28:16;12.80;99.90
46440;DHT22;32138;50.966;6.968;2023-11-19T06:29:47;12.80;99.90
46440;DHT22;32138;50.966;6.968;2023-11-19T06:31:17;12.80;99.90
46440;DHT22;32138;50.966;6.968;2023-11-19T06:32:48;12.80;99.90
46440;DHT22;32138;50.966;6.968;2023-11-19T06:34:19;12.90;99.90
46440;DHT22;32138;50.966;6.968;2023-11-19T06:35:50;12.90;99.90
46440;DHT22;32138;50.966;6.968;2023-11-19T06:37:21;12.90;99.90
46440;DHT22;32138;50.966;6.968;2023-11-19T06:38:52;12.90;99.90
46440;DHT22;32138;50.966;6.968;2023-11-19T06:40:23;12.90;99.90
46440;DHT22;32138;50.966;6.968;2023-11-19T06:41:54;12.90;99.90
46440;DHT22;32138;50.966;6.968;2023-11-19T06:43:24;12.90;99.90
46440;DHT22;32138;50.966;6.968;2023-11-19T06:44:56;12.80;99.90
46440;DHT22;32138;50.966;6.968;2023-11-19T06:46:27;12.80;99.90
46440;DHT22;32138;50.966;6.968;2023-11-19T06:48:01;12.80;99.90
46440;DHT22;32138;50.966;6.968;2023-11-19T06:49:33;12.80;99.90
46440;DHT22;32138;50.966;6.968;2023-11-19T06:51:05;12.80;99.90
46440;DHT22;32138;50.966;6.968;2023-11-19T06:52:35;12.70;99.90
46440;DHT22;32138;50.966;6.968;2023-11-19T06:54:07;12.80;99.90
46440;DHT22;32138;50.966;6.968;2023-11-19T06:55:38;12.70;99.90
46440;DHT22;32138;50.966;6.968;2023-11-19T06:57:09;12.70;99.90
46440;DHT22;32138;50.966;6.968;2023-11-19T06:58:40;12.80;99.90
46440;DHT22;32138;50.966;6.968;2023-11-19T07:00:11;12.80;99.90
46440;DHT22;32138;50.966;6.968;2023-11-19T07:01:42;12.80;99.90
46440;DHT22;32138;50.966;6.968;2023-11-19T07:03:15;12.70;99.90
46440;DHT22;32138;50.966;6.968;2023-11-19T07:04:46;12.70;99.90
46440;DHT22;32138;50.966;6.968;2023-11-19T07:06:17;12.70;99.90
46440;DHT22;32138;50.966;6.968;2023-11-19T07:07:48;12.70;99.90
46440;DHT22;32138;50.966;6.968;2023-11-19T07:09:19;12.60;99.90
46440;DHT22;32138;50.966;6.968;2023-11-19T07:10:50;12.70;99.90
46440;DHT22;32138;50.966;6.968;2023-11-19T07:12:20;12.70;99.90
46440;DHT22;32138;50.966;6.968;2023-11-19T07:13:51;12.70;99.90
46440;DHT22;32138;50.966;6.968;2023-11-19T07:15:22;12.70;99.90
46440;DHT22;32138;50.966;6.968;2023-11-19T07:16:53;12.70;99.90
46440;DHT22;32138;50.966;6.968;2023-11-19T07:18:24;12.70;99.90
46440;DHT22;32138;50.966;6.968;2023-11-19T07:19:55;12.70;99.90
46440;DHT22;32138;50.966;6.968;2023-11-19T07:21:30;12.80;99.90
46440;DHT22;32138;50.966;6.968;2023-11-19T07:23:01;12.80;99.90
46440;DHT22;32138;50.966;6.968;2023-11-19T07:24:31;12.80;99.90
46440;DHT22;32138;50.966;6.968;2023-11-19T07:26:05;12.70;99.90
46440;DHT22;32138;50.966;6.968;2023-11-19T07:27:38;12.70;99.90
46440;DHT22;32138;50.966;6.968;2023-11-19T07:29:09;12.70;99.90
46440;DHT22;32138;50.966;6.968;2023-11-19T07:30:40;12.70;99.90
46440;DHT22;32138;50.966;6.968;2023-11-19T07:32:11;12.80;99.90
46440;DHT22;32138;50.966;6.968;2023-11-19T07:33:43;12.70;99.90
46440;DHT22;32138;50.966;6.968;2023-11-19T07:35:14;12.90;99.90
46440;DHT22;32138;50.966;6.968;2023-11-19T07:36:46;13.00;99.90
46440;DHT22;32138;50.966;6.968;2023-11-19T07:38:16;13.20;99.90
46440;DHT22;32138;50.966;6.968;2023-11-19T07:39:47;13.30;99.90
46440;DHT22;32138;50.966;6.968;2023-11-19T07:41:18;13.40;99.90
46440;DHT22;32138;50.966;6.968;2023-11-19T07:42:50;13.30;99.90
46440;DHT22;32138;50.966;6.968;2023-11-19T07:44:21;13.20;99.90
46440;DHT22;32138;50.966;6.968;2023-11-19T07:45:52;13.10;99.90
46440;DHT22;32138;50.966;6.968;2023-11-19T07:47:22;13.00;99.90
46440;DHT22;32138;50.966;6.968;2023-11-19T07:48:53;13.00;99.90
46440;DHT22;32138;50.966;6.968;2023-11-19T07:50:24;12.90;99.90
46440;DHT22;32138;50.966;6.968;2023-11-19T07:51:55;12.80;99.90
46440;DHT22;32138;50.966;6.968;2023-11-19T07:53:26;12.80;99.90
46440;DHT22;32138;50.966;6.968;2023-11-19T07:54:57;12.80;99.90
46440;DHT22;32138;50.966;6.968;2023-11-19T07:56:28;12.80;99.90
46440;DHT22;32138;50.966;6.968;2023-11-19T07:57:58;12.90;99.90
46440;DHT22;32138;50.966;6.968;2023-11-19T07:59:29;12.90;99.90
46440;DHT22;32138;50.966;6.968;2023-11-19T08:01:00;12.90;99.90
46440;DHT22;32138;50.966;6.968;2023-11-19T08:02:32;12.80;99.90
46440;DHT22;32138;50.966;6.968;2023-11-19T08:04:03;12.80;99.90
46440;DHT22;32138;50.966;6.968;2023-11-19T08:05:34;12.70;99.90
46440;DHT22;32138;50.966;6.968;2023-11-19T08:07:06;12.80;99.90
46440;DHT22;32138;50.966;6.968;2023-11-19T08:08:37;12.80;99.90
46440;DHT22;32138;50.966;6.968;2023-11-19T08:10:08;12.90;99.90
46440;DHT22;32138;50.966;6.968;2023-11-19T08:11:42;12.90;99.90
46440;DHT22;32138;50.966;6.968;2023-11-19T08:13:13;12.90;99.90
46440;DHT22;32138;50.966;6.968;2023-11-19T08:14:43;13.90;99.90
46440;DHT22;32138;50.966;6.968;2023-11-19T08:16:14;15.10;99.90
46440;DHT22;32138;50.966;6.968;2023-11-19T08:17:45;15.00;99.90
46440;DHT22;32138;50.966;6.968;2023-11-19T08:19:16;16.40;99.90
46440;DHT22;32138;50.966;6.968;2023-11-19T08:20:46;17.50;99.90
46440;DHT22;32138;50.966;6.968;2023-11-19T08:22:22;18.30;99.90
46440;DHT22;32138;50.966;6.968;2023-11-19T08:23:53;18.20;99.90
46440;DHT22;32138;50.966;6.968;2023-11-19T08:25:24;18.10;99.90
46440;DHT22;32138;50.966;6.968;2023-11-19T08:26:55;18.20;99.90
46440;DHT22;32138;50.966;6.968;2023-11-19T08:28:25;17.90;99.90
46440;DHT22;32138;50.966;6.968;2023-11-19T08:29:56;18.30;99.90
46440;DHT22;32138;50.966;6.968;2023-11-19T08:31:27;18.60;99.90
46440;DHT22;32138;50.966;6.968;2023-11-19T08:32:58;18.70;99.90
46440;DHT22;32138;50.966;6.968;2023-11-19T08:34:30;19.00;99.90
46440;DHT22;32138;50.966;6.968;2023-11-19T08:36:01;18.80;99.90
46440;DHT22;32138;50.966;6.968;2023-11-19T08:37:34;18.50;99.90
46440;DHT22;32138;50.966;6.968;2023-11-19T08:39:07;18.10;99.90
46440;DHT22;32138;50.966;6.968;2023-11-19T08:40:39;18.30;99.90
46440;DHT22;32138;50.966;6.968;2023-11-19T08:42:09;19.00;99.90
46440;DHT22;32138;50.966;6.968;2023-11-19T08:43:40;19.20;99.90
46440;DHT22;32138;50.966;6.968;2023-11-19T08:45:12;19.50;99.90
46440;DHT22;32138;50.966;6.968;2023-11-19T08:46:51;19.00;99.90
46440;DHT22;32138;50.966;6.968;2023-11-19T08:48:22;18.70;99.90
46440;DHT22;32138;50.966;6.968;2023-11-19T08:49:53;17.70;99.90
46440;DHT22;32138;50.966;6.968;2023-11-19T08:51:25;17.00;99.90
46440;DHT22;32138;50.966;6.968;2023-11-19T08:52:56;16.50;99.90
46440;DHT22;32138;50.966;6.968;2023-11-19T08:54:26;16.40;99.90
46440;DHT22;32138;50.966;6.968;2023-11-19T08:55:57;16.60;99.90
46440;DHT22;32138;50.966;6.968;2023-11-19T08:57:28;16.00;99.90
46440;DHT22;32138;50.966;6.968;2023-11-19T08:58:59;15.90;99.90
46440;DHT22;32138;50.966;6.968;2023-11-19T09:00:29;16.10;99.90
46440;DHT22;32138;50.966;6.968;2023-11-19T09:02:03;16.10;99.90
46440;DHT22;32138;50.966;6.968;2023-11-19T09:03:38;16.10;99.90
46440;DHT22;32138;50.966;6.968;2023-11-19T09:05:09;16.30;99.90
46440;DHT22;32138;50.966;6.968;2023-11-19T09:06:39;16.00;99.90
46440;DHT22;32138;50.966;6.968;2023-11-19T09:08:10;16.00;99.90
46440;DHT22;32138;50.966;6.968;2023-11-19T09:09:42;16.00;99.90
46440;DHT22;32138;50.966;6.968;2023-11-19T09:11:13;15.90;99.90
46440;DHT22;32138;50.966;6.968;2023-11-19T09:12:43;15.70;99.90
46440;DHT22;32138;50.966;6.968;2023-11-19T09:14:14;15.60;99.90
46440;DHT22;32138;50.966;6.968;2023-11-19T09:15:45;15.60;99.90
46440;DHT22;32138;50.966;6.968;2023-11-19T09:17:16;15.60;99.90
46440;DHT22;32138;50.966;6.968;2023-11-19T09:18:48;15.90;99.90
46440;DHT22;32138;50.966;6.968;2023-11-19T09:20:19;16.00;99.90
46440;DHT22;32138;50.966;6.968;2023-11-19T09:21:49;16.10;99.90
46440;DHT22;32138;50.966;6.968;2023-11-19T09:23:21;15.90;99.90
46440;DHT22;32138;50.966;6.968;2023-11-19T09:24:51;16.00;99.90
46440;DHT22;32138;50.966;6.968;2023-11-19T09:26:22;16.20;99.90
46440;DHT22;32138;50.966;6.968;2023-11-19T09:27:53;17.20;99.90
46440;DHT22;32138;50.966;6.968;2023-11-19T09:29:24;17.40;99.90
46440;DHT22;32138;50.966;6.968;2023-11-19T09:30:54;16.50;99.90
46440;DHT22;32138;50.966;6.968;2023-11-19T09:32:25;16.30;99.90
46440;DHT22;32138;50.966;6.968;2023-11-19T09:33:56;16.30;99.90
46440;DHT22;32138;50.966;6.968;2023-11-19T09:35:27;16.40;99.90
46440;DHT22;32138;50.966;6.968;2023-11-19T09:36:57;16.40;99.90